Time;durP1;ratioP1;P1;durP2;ratioP2;P2;SDS_P1;SDS_P2;PMS_P1;PMS_P2;Temp;Humidity;BMP_temperature;BMP_pressure;BME280_temperature;BME280_humidity;BME280_pressure;Samples;Min_cycle;Max_cycle;Signal;HPM_P1;HPM_P2
2023/01/09 00:02:00;;;;;;;3.40;0.90;;;;;;;6.35;100.00;99209.63;5036972;28;20429;-68
2023/01/09 00:04:26;;;;;;;5.50;1.05;;;;;;;6.38;100.00;99214.88;5036944;28;20020;-69
2023/01/09 00:06:54;;;;;;;2.90;1.00;;;;;;;6.34;100.00;99209.63;5039849;28;20500;-69
2023/01/09 00:09:22;;;;;;;5.32;1.40;;;;;;;6.31;100.00;99212.19;5030271;28;20026;-69
2023/01/09 00:11:47;;;;;;;2.70;0.73;;;;;;;6.30;100.00;99213.94;5032389;28;20078;-72
2023/01/09 00:14:15;;;;;;;4.78;1.50;;;;;;;6.30;100.00;99213.94;5031676;28;20105;-70
2023/01/09 00:16:40;;;;;;;4.53;1.50;;;;;;;6.25;100.00;99207.81;5033695;28;20168;-69
2023/01/09 00:19:06;;;;;;;3.55;1.02;;;;;;;6.22;100.00;99213.00;5026285;28;20033;-69
2023/01/09 00:21:31;;;;;;;5.40;1.52;;;;;;;6.19;100.00;99208.63;5045140;28;20171;-69
2023/01/09 00:23:56;;;;;;;9.25;1.52;;;;;;;6.18;100.00;99211.25;5031364;28;20021;-69
2023/01/09 00:26:22;;;;;;;6.93;1.30;;;;;;;6.14;100.00;99212.06;5046717;28;20029;-69
2023/01/09 00:28:50;;;;;;;5.25;1.67;;;;;;;6.18;100.00;99217.31;5033061;28;20075;-70
2023/01/09 00:31:15;;;;;;;4.80;1.20;;;;;;;6.17;100.00;99201.66;5032210;28;20496;-69
2023/01/09 00:33:44;;;;;;;10.15;1.63;;;;;;;6.10;100.00;99205.09;5033546;28;20037;-69
2023/01/09 00:36:10;;;;;;;5.07;1.13;;;;;;;6.11;100.00;99196.41;5032443;28;20029;-69
2023/01/09 00:38:36;;;;;;;7.18;1.20;;;;;;;6.08;100.00;99194.63;5032332;28;20171;-69
2023/01/09 00:41:05;;;;;;;6.10;1.25;;;;;;;6.06;100.00;99193.72;5033971;28;20461;-70
2023/01/09 00:43:35;;;;;;;2.53;0.80;;;;;;;6.02;100.00;99190.25;5031917;28;20083;-69
2023/01/09 00:46:03;;;;;;;5.10;1.10;;;;;;;6.00;100.00;99186.72;5032336;28;20044;-68
2023/01/09 00:48:29;;;;;;;9.45;1.30;;;;;;;5.98;100.00;99188.47;5031977;28;20036;-69
2023/01/09 00:50:57;;;;;;;8.32;1.42;;;;;;;5.91;100.00;99184.00;5031492;28;20033;-68
2023/01/09 00:53:28;;;;;;;5.90;1.98;;;;;;;5.88;100.00;99182.22;5037646;28;20288;-70
2023/01/09 00:55:56;;;;;;;7.72;0.95;;;;;;;5.86;100.00;99188.28;5029578;28;20029;-68
2023/01/09 00:58:22;;;;;;;6.93;1.23;;;;;;;5.86;100.00;99194.41;5032209;28;20053;-68
2023/01/09 01:00:47;;;;;;;8.32;1.40;;;;;;;5.91;100.00;99194.44;5034636;28;20048;-69
2023/01/09 01:03:13;;;;;;;8.45;1.27;;;;;;;5.90;100.00;99190.06;5032042;28;20045;-69
2023/01/09 01:08:22;;;;;;;;;;;;;;;5.83;100.00;99193.50;5033207;28;20145;-67
2023/01/09 01:10:47;;;;;;;6.35;1.70;;;;;;;5.79;100.00;99189.13;5033744;28;20020;-69
2023/01/09 01:13:13;;;;;;;2.60;1.00;;;;;;;5.76;100.00;99187.34;5035396;28;20108;-70
2023/01/09 01:15:40;;;;;;;7.43;1.45;;;;;;;5.80;100.00;99198.69;5034124;28;20080;-70
2023/01/09 01:18:06;;;;;;;10.38;1.48;;;;;;;5.82;100.00;99200.47;5035049;28;20442;-69
2023/01/09 01:20:31;;;;;;;6.40;1.75;;;;;;;5.86;100.00;99193.50;5032483;28;20100;-68
2023/01/09 01:22:56;;;;;;;3.15;1.65;;;;;;;5.86;100.00;99199.63;5037080;28;20031;-68
2023/01/09 01:25:22;;;;;;;3.50;1.27;;;;;;;5.86;100.00;99204.84;5031599;28;20049;-68
2023/01/09 01:27:47;;;;;;;8.35;1.50;;;;;;;5.89;100.00;99211.84;5044755;28;21685;-68
2023/01/09 01:30:14;;;;;;;4.50;1.33;;;;;;;5.94;100.00;99206.66;5032090;28;20045;-69
2023/01/09 01:32:40;;;;;;;5.75;1.42;;;;;;;5.91;100.00;99202.28;5031953;28;20037;-69
2023/01/09 01:35:06;;;;;;;1.80;1.15;;;;;;;5.92;100.00;99193.59;5037378;28;20020;-68
2023/01/09 01:37:33;;;;;;;5.90;1.70;;;;;;;5.93;100.00;99194.44;5031239;28;20381;-69
2023/01/09 01:39:58;;;;;;;2.35;1.55;;;;;;;5.94;100.00;99196.22;5030166;28;20025;-70
2023/01/09 01:42:24;;;;;;;4.40;1.80;;;;;;;5.95;100.00;99196.22;5034425;28;20378;-69
2023/01/09 01:45:01;;;;;;;5.22;1.40;;;;;;;5.94;100.00;99197.09;5031460;28;20385;-68
2023/01/09 01:47:58;;;;;;;1.70;1.20;;;;;;;5.92;100.00;99185.75;5031855;28;20104;-69
2023/01/09 01:50:42;;;;;;;7.38;1.50;;;;;;;5.91;100.00;99197.94;5020963;28;20029;-69
2023/01/09 01:53:22;;;;;;;5.03;1.85;;;;;;;5.94;100.00;99193.59;5031482;28;20040;-69
2023/01/09 01:56:05;;;;;;;6.20;1.48;;;;;;;5.91;100.00;99191.81;5025354;28;20029;-69
2023/01/09 01:58:36;;;;;;;6.85;2.03;;;;;;;5.90;100.00;99197.91;5029336;28;20040;-69
2023/01/09 02:01:02;;;;;;;8.73;2.25;;;;;;;5.90;100.00;99198.78;5032403;28;20025;-69
2023/01/09 02:03:28;;;;;;;8.73;1.60;;;;;;;5.86;100.00;99199.63;5031134;28;20036;-68
2023/01/09 02:05:53;;;;;;;8.13;2.35;;;;;;;5.88;100.00;99203.13;5030473;28;20029;-70
2023/01/09 02:08:19;;;;;;;5.60;1.92;;;;;;;5.84;100.00;99196.13;5025609;28;20034;-70
2023/01/09 02:10:46;;;;;;;6.53;2.28;;;;;;;5.81;100.00;99201.31;5031865;28;20033;-70
2023/01/09 02:13:12;;;;;;;6.97;2.15;;;;;;;5.81;100.00;99209.16;5038672;28;20026;-70
2023/01/09 02:16:05;;;;;;;4.93;2.17;;;;;;;5.83;100.00;99217.00;5029605;28;20108;-68
2023/01/09 02:19:03;;;;;;;6.90;2.05;;;;;;;5.87;100.00;99214.44;5028439;28;20513;-68
2023/01/09 02:21:50;;;;;;;6.20;2.15;;;;;;;5.88;100.00;99212.69;5022126;28;20041;-68
2023/01/09 02:24:15;;;;;;;7.25;2.00;;;;;;;5.88;100.00;99213.56;5032262;28;20036;-69
2023/01/09 02:26:41;;;;;;;3.20;1.95;;;;;;;5.89;100.00;99212.69;5031175;28;20029;-68
2023/01/09 02:29:17;;;;;;;7.80;2.17;;;;;;;5.90;100.00;99216.19;5035586;28;20028;-69
2023/01/09 02:31:57;;;;;;;8.88;2.30;;;;;;;5.94;100.00;99219.69;5032285;28;20060;-69
2023/01/09 02:34:50;;;;;;;5.30;2.17;;;;;;;5.87;100.00;99217.06;5032079;28;20025;-69
2023/01/09 02:37:43;;;;;;;4.57;2.47;;;;;;;5.87;100.00;99206.63;5037014;28;20496;-69
2023/01/09 02:40:21;;;;;;;11.43;2.22;;;;;;;5.83;100.00;99217.88;5037569;28;20017;-67
2023/01/09 02:42:47;;;;;;;7.85;2.85;;;;;;;5.74;100.00;99210.81;5022651;28;20036;-68
2023/01/09 02:45:13;;;;;;;5.38;2.28;;;;;;;5.76;100.00;99207.38;5035250;28;20390;-69
2023/01/09 02:47:42;;;;;;;7.72;2.97;;;;;;;5.79;100.00;99202.16;5033697;28;20049;-68
2023/01/09 02:50:13;;;;;;;9.65;3.05;;;;;;;5.77;100.00;99203.91;5034684;28;20164;-69
2023/01/09 02:53:06;;;;;;;8.50;2.75;;;;;;;5.73;100.00;99208.22;5037091;28;20500;-68
2023/01/09 02:55:54;;;;;;;7.57;2.05;;;;;;;5.73;100.00;99208.22;5033488;28;20053;-69
2023/01/09 02:58:19;;;;;;;11.13;3.05;;;;;;;5.72;100.00;99206.44;5034557;28;20033;-69
2023/01/09 03:00:58;;;;;;;10.50;2.70;;;;;;;5.72;100.00;99196.00;5036421;28;20147;-69
2023/01/09 03:03:48;;;;;;;7.85;2.55;;;;;;;5.70;100.00;99193.38;5054097;28;20021;-69
2023/01/09 03:06:42;;;;;;;8.35;2.85;;;;;;;5.71;100.00;99195.16;5031332;28;20473;-68
2023/01/09 03:09:13;;;;;;;;;;;;;;;5.67;100.00;99193.38;5037888;28;20099;-69
2023/01/09 03:11:43;;;;;;;6.15;2.35;;;;;;;5.65;100.00;99189.00;5035069;28;20396;-69
2023/01/09 03:14:13;;;;;;;7.63;3.13;;;;;;;5.64;100.00;99177.66;5033727;28;20554;-69
2023/01/09 03:16:38;;;;;;;10.60;2.95;;;;;;;5.59;100.00;99174.16;5033644;28;20025;-67
2023/01/09 03:19:10;;;;;;;11.88;2.40;;;;;;;5.60;100.00;99178.50;5032980;28;20029;-69
2023/01/09 03:21:36;;;;;;;5.75;2.67;;;;;;;5.58;100.00;99177.63;5034204;28;20032;-70
2023/01/09 03:24:02;;;;;;;4.90;2.53;;;;;;;5.54;100.00;99171.47;5034791;28;20029;-69
2023/01/09 03:26:28;;;;;;;12.77;3.28;;;;;;;5.57;100.00;99187.19;5033486;28;20384;-68
2023/01/09 03:28:54;;;;;;;8.93;2.45;;;;;;;5.61;100.00;99175.03;5032167;28;20065;-68
2023/01/09 03:31:20;;;;;;;7.70;2.78;;;;;;;5.60;100.00;99177.63;5033698;28;20053;-70
2023/01/09 03:33:46;;;;;;;9.85;2.38;;;;;;;5.62;100.00;99174.19;5034356;28;20032;-69
2023/01/09 03:36:12;;;;;;;4.38;2.08;;;;;;;5.62;100.00;99176.78;5035089;28;20033;-69
2023/01/09 03:38:38;;;;;;;9.82;2.38;;;;;;;5.65;100.00;99174.19;5032258;28;20026;-71
2023/01/09 03:41:03;;;;;;;9.15;1.83;;;;;;;5.76;100.00;99191.72;5037775;28;20021;-68
2023/01/09 03:43:29;;;;;;;8.48;2.42;;;;;;;5.76;100.00;99189.09;5039815;28;20075;-69
2023/01/09 03:45:55;;;;;;;7.40;2.03;;;;;;;5.78;100.00;99195.19;5031841;28;20051;-70
2023/01/09 03:48:21;;;;;;;2.83;1.65;;;;;;;5.82;100.00;99191.75;5032119;28;20444;-69
2023/01/09 03:50:51;;;;;;;5.90;2.00;;;;;;;5.83;100.00;99188.28;5034130;28;20483;-69
2023/01/09 03:53:17;;;;;;;5.85;1.83;;;;;;;5.87;100.00;99187.44;5032534;28;20064;-68
2023/01/09 03:55:45;;;;;;;8.20;2.10;;;;;;;5.87;100.00;99184.84;5034508;28;20055;-69
2023/01/09 03:58:10;;;;;;;7.97;1.63;;;;;;;5.87;100.00;99190.06;5032564;28;20497;-69
2023/01/09 04:00:38;;;;;;;6.10;1.48;;;;;;;5.87;100.00;99203.09;5033070;28;20076;-70
2023/01/09 04:03:03;;;;;;;8.77;2.10;;;;;;;5.83;100.00;99197.00;5032651;28;20546;-70
2023/01/09 04:05:28;;;;;;;6.47;2.20;;;;;;;5.80;100.00;99191.72;5032680;28;20033;-70
2023/01/09 04:07:54;;;;;;;4.85;1.50;;;;;;;5.73;100.00;99193.41;5030249;28;20161;-68
2023/01/09 04:10:19;;;;;;;11.88;2.22;;;;;;;5.66;100.00;99194.22;5034367;28;20017;-70
2023/01/09 04:12:44;;;;;;;10.07;2.00;;;;;;;5.61;100.00;99182.00;5034450;28;20378;-69
2023/01/09 04:15:10;;;;;;;4.30;2.10;;;;;;;5.56;100.00;99179.31;5031605;28;20049;-69
2023/01/09 04:17:35;;;;;;;6.10;1.80;;;;;;;5.52;100.00;99168.00;5033697;28;20037;-69
2023/01/09 04:20:01;;;;;;;14.20;2.72;;;;;;;5.53;100.00;99163.66;5033006;28;20025;-67
2023/01/09 04:22:26;;;;;;;13.52;2.75;;;;;;;5.52;100.00;99161.88;5036393;28;20085;-70
2023/01/09 04:24:51;;;;;;;7.85;2.50;;;;;;;5.52;100.00;99164.50;5033885;28;20025;-68
2023/01/09 04:27:17;;;;;;;10.82;2.78;;;;;;;5.54;100.00;99162.78;5033603;28;20079;-69
2023/01/09 04:29:42;;;;;;;8.40;2.58;;;;;;;5.56;100.00;99161.06;5033407;28;20091;-68
2023/01/09 04:32:07;;;;;;;11.93;2.40;;;;;;;5.57;100.00;99157.59;5031566;28;20029;-69
2023/01/09 04:34:33;;;;;;;7.55;2.90;;;;;;;5.58;100.00;99161.97;5034059;28;20096;-69
2023/01/09 04:36:58;;;;;;;6.65;2.75;;;;;;;5.60;100.00;99160.22;5032474;28;20044;-69
2023/01/09 04:39:23;;;;;;;10.68;2.53;;;;;;;5.58;100.00;99162.81;5065928;28;20068;-69
2023/01/09 04:41:49;;;;;;;7.20;2.20;;;;;;;5.61;100.00;99155.91;5023486;28;20041;-68
2023/01/09 04:44:20;;;;;;;8.60;3.47;;;;;;;5.59;100.00;99155.91;5047311;28;20025;-69
2023/01/09 04:46:46;;;;;;;8.77;2.20;;;;;;;5.59;100.00;99153.28;5032667;28;20031;-68
2023/01/09 04:49:12;;;;;;;6.80;2.45;;;;;;;5.64;100.00;99158.53;5051122;28;20384;-69
2023/01/09 04:51:37;;;;;;;8.55;1.92;;;;;;;5.68;100.00;99161.19;5033388;28;20033;-69
2023/01/09 04:54:03;;;;;;;7.70;2.53;;;;;;;5.71;100.00;99163.84;5033584;28;20421;-69
2023/01/09 04:56:28;;;;;;;10.93;2.30;;;;;;;5.74;100.00;99153.41;5032972;28;20036;-68
2023/01/09 04:58:54;;;;;;;4.32;2.65;;;;;;;5.76;100.00;99157.78;5030268;28;20132;-68
2023/01/09 05:01:19;;;;;;;9.75;2.50;;;;;;;5.78;100.00;99154.31;5031176;28;20065;-68
2023/01/09 05:03:45;;;;;;;8.35;1.85;;;;;;;5.82;100.00;99155.19;5032111;28;20025;-70
2023/01/09 05:06:10;;;;;;;10.73;2.38;;;;;;;5.84;100.00;99143.91;5030091;28;20104;-69
2023/01/09 05:08:35;;;;;;;7.53;2.67;;;;;;;5.86;100.00;99151.75;5031384;28;20021;-70
2023/01/09 05:11:01;;;;;;;10.18;2.97;;;;;;;5.85;100.00;99145.66;5033234;28;20022;-68
2023/01/09 05:13:26;;;;;;;4.70;2.55;;;;;;;5.81;100.00;99138.69;5030066;28;20030;-69
2023/01/09 05:15:51;;;;;;;14.70;2.80;;;;;;;5.74;100.00;99140.34;5031337;28;20032;-70
2023/01/09 05:18:17;;;;;;;10.20;2.75;;;;;;;5.70;100.00;99143.81;5033264;28;20505;-71
2023/01/09 05:20:42;;;;;;;9.68;2.70;;;;;;;5.65;100.00;99145.50;5032002;28;20031;-69
2023/01/09 05:23:07;;;;;;;6.90;3.20;;;;;;;5.61;100.00;99141.09;5032531;28;20404;-69
2023/01/09 05:25:33;;;;;;;7.50;2.78;;;;;;;5.60;100.00;99136.75;5032103;28;20033;-69
2023/01/09 05:28:00;;;;;;;11.55;3.10;;;;;;;5.57;100.00;99121.06;5032286;28;20072;-69
2023/01/09 05:30:25;;;;;;;13.65;3.42;;;;;;;5.54;100.00;99129.75;5032734;28;20033;-70
2023/01/09 05:32:51;;;;;;;10.93;3.33;;;;;;;5.54;100.00;99126.28;5030563;28;20071;-70
2023/01/09 05:35:16;;;;;;;10.40;3.22;;;;;;;5.50;100.00;99127.09;5031170;28;20037;-69
2023/01/09 05:37:41;;;;;;;11.68;3.75;;;;;;;5.50;100.00;99132.31;5040550;28;20021;-69
2023/01/09 05:40:09;;;;;;;7.28;3.45;;;;;;;5.48;100.00;99128.81;5014111;28;20483;-68
2023/01/09 05:42:34;;;;;;;11.73;3.63;;;;;;;5.45;100.00;99134.88;5033627;28;20512;-68
2023/01/09 05:44:59;;;;;;;6.25;3.40;;;;;;;5.45;100.00;99128.78;5030916;28;20021;-70
2023/01/09 05:47:25;;;;;;;11.77;3.90;;;;;;;5.46;100.00;99125.31;5028057;28;20072;-70
2023/01/09 05:49:50;;;;;;;13.88;4.35;;;;;;;5.46;100.00;99123.59;5030053;28;20032;-70
2023/01/09 05:52:15;;;;;;;9.90;3.88;;;;;;;5.48;100.00;99123.59;5027081;28;20034;-70
2023/01/09 05:54:41;;;;;;;13.98;5.10;;;;;;;5.48;100.00;99119.25;5041292;28;20025;-70
2023/01/09 05:57:06;;;;;;;8.48;3.80;;;;;;;5.51;100.00;99118.44;5048101;28;20081;-69
2023/01/09 05:59:31;;;;;;;12.88;3.53;;;;;;;5.54;100.00;99115.84;5029410;28;20094;-70
2023/01/09 06:01:57;;;;;;;14.43;4.03;;;;;;;5.56;100.00;99116.72;5026259;28;20021;-69
2023/01/09 06:04:22;;;;;;;18.30;3.78;;;;;;;5.54;100.00;99103.66;5030389;28;20036;-69
2023/01/09 06:06:48;;;;;;;9.02;4.22;;;;;;;5.58;100.00;99109.78;5034669;28;20042;-69
2023/01/09 06:09:13;;;;;;;12.77;3.95;;;;;;;5.61;100.00;99104.59;5030238;28;20155;-68
2023/01/09 06:11:38;;;;;;;7.55;3.60;;;;;;;5.64;100.00;99109.81;5035646;28;20030;-70
2023/01/09 06:14:05;;;;;;;8.77;3.28;;;;;;;5.65;100.00;99098.53;5026361;28;20363;-68
2023/01/09 06:16:30;;;;;;;13.50;3.90;;;;;;;5.67;100.00;99099.44;5027509;28;20473;-68
2023/01/09 06:18:56;;;;;;;9.88;3.55;;;;;;;5.70;100.00;99104.66;5027129;28;20056;-69
2023/01/09 06:21:21;;;;;;;12.13;3.00;;;;;;;5.73;100.00;99109.91;5029631;28;20021;-69
2023/01/09 06:23:47;;;;;;;9.27;3.42;;;;;;;5.74;100.00;99100.34;5029352;28;20052;-69
2023/01/09 06:26:12;;;;;;;11.02;5.05;;;;;;;5.72;100.00;99108.16;5029710;28;20465;-69
2023/01/09 06:28:37;;;;;;;10.52;3.50;;;;;;;5.76;100.00;99109.06;5029964;28;20469;-69
2023/01/09 06:31:03;;;;;;;11.93;4.00;;;;;;;5.78;100.00;99106.44;5041477;28;20104;-68
2023/01/09 06:33:28;;;;;;;8.43;2.97;;;;;;;5.80;100.00;99105.59;5028659;28;20326;-70
2023/01/09 06:35:54;;;;;;;8.13;2.95;;;;;;;5.78;100.00;99106.44;5030155;28;20506;-69
2023/01/09 06:38:19;;;;;;;6.75;3.67;;;;;;;5.79;100.00;99102.97;5030775;28;20054;-70
2023/01/09 06:40:44;;;;;;;14.27;3.88;;;;;;;5.80;100.00;99108.22;5038232;28;20387;-71
2023/01/09 06:43:10;;;;;;;13.77;4.28;;;;;;;5.81;100.00;99116.94;5028497;28;20037;-69
2023/01/09 06:45:35;;;;;;;8.57;3.90;;;;;;;5.82;100.00;99118.66;5030814;28;20013;-70
2023/01/09 06:48:00;;;;;;;12.27;5.68;;;;;;;5.86;100.00;99115.22;5029229;28;20030;-69
2023/01/09 06:50:26;;;;;;;17.60;4.93;;;;;;;5.90;100.00;99122.19;5035339;28;20029;-68
2023/01/09 06:52:51;;;;;;;10.10;4.20;;;;;;;5.89;100.00;99120.47;5036142;28;20488;-69
2023/01/09 06:55:17;;;;;;;7.55;3.58;;;;;;;5.91;100.00;99119.63;5038190;28;20031;-68
2023/01/09 06:57:42;;;;;;;11.38;3.28;;;;;;;5.94;100.00;99124.00;5030829;28;20393;-70
2023/01/09 07:00:08;;;;;;;11.50;4.15;;;;;;;5.96;100.00;99124.88;5027551;28;20493;-70
2023/01/09 07:02:34;;;;;;;13.13;3.03;;;;;;;5.98;100.00;99135.34;5028035;28;20392;-71
2023/01/09 07:04:59;;;;;;;17.52;3.13;;;;;;;6.00;100.00;99138.88;5042801;28;20103;-71
2023/01/09 07:07:25;;;;;;;18.95;3.10;;;;;;;6.04;100.00;99140.63;5024483;28;20030;-71
2023/01/09 07:09:50;;;;;;;13.75;2.03;;;;;;;6.03;100.00;99139.75;5008700;28;20061;-71
2023/01/09 07:12:16;;;;;;;7.50;1.80;;;;;;;6.06;100.00;99139.78;5031020;28;20052;-71
2023/01/09 07:14:41;;;;;;;10.73;2.30;;;;;;;6.05;100.00;99153.69;5028873;28;20052;-71
2023/01/09 07:17:07;;;;;;;8.90;1.55;;;;;;;6.08;100.00;99156.31;5029421;28;20045;-68
2023/01/09 07:19:32;;;;;;;5.85;1.00;;;;;;;6.11;100.00;99162.44;5029989;28;20061;-69
2023/01/09 07:21:57;;;;;;;2.65;0.98;;;;;;;6.16;100.00;99166.84;5029420;28;20100;-70
2023/01/09 07:24:23;;;;;;;9.05;1.13;;;;;;;6.20;100.00;99171.22;5031925;28;20075;-68
2023/01/09 07:26:48;;;;;;;13.18;1.23;;;;;;;6.22;100.00;99182.53;5033135;28;20029;-68
2023/01/09 07:29:13;;;;;;;4.15;0.80;;;;;;;6.23;100.00;99188.66;5032992;28;20049;-68
2023/01/09 07:31:39;;;;;;;7.63;1.25;;;;;;;6.25;100.00;99192.13;5031199;28;20078;-69
2023/01/09 07:34:04;;;;;;;6.95;1.20;;;;;;;6.32;100.00;99199.16;5032590;28;20366;-69
2023/01/09 07:36:29;;;;;;;3.95;0.70;;;;;;;6.32;100.00;99214.84;5033136;28;20138;-69
2023/01/09 07:38:55;;;;;;;7.32;0.70;;;;;;;6.33;100.00;99213.94;5032746;28;20586;-69
2023/01/09 07:41:20;;;;;;;8.32;0.70;;;;;;;6.38;100.00;99222.72;5030828;28;20033;-70
2023/01/09 07:43:46;;;;;;;5.47;0.98;;;;;;;6.43;100.00;99227.09;5035162;28;20109;-70
2023/01/09 07:46:11;;;;;;;5.72;0.40;;;;;;;6.44;100.00;99234.94;5031689;28;20021;-70
2023/01/09 07:48:36;;;;;;;2.53;0.30;;;;;;;6.44;100.00;99245.38;5034660;28;20491;-70
2023/01/09 07:51:02;;;;;;;6.25;0.80;;;;;;;6.45;100.00;99243.66;5031697;28;20446;-71
2023/01/09 07:53:27;;;;;;;9.57;0.95;;;;;;;6.45;100.00;99251.50;5033642;28;20044;-70
2023/01/09 07:55:53;;;;;;;3.13;0.50;;;;;;;6.47;100.00;99263.72;5034893;28;20029;-71
2023/01/09 07:58:18;;;;;;;3.75;0.88;;;;;;;6.46;100.00;99279.34;5032605;28;20116;-72
2023/01/09 08:00:43;;;;;;;6.25;0.65;;;;;;;6.44;100.00;99278.50;5035463;28;20048;-70
2023/01/09 08:03:09;;;;;;;6.13;0.93;;;;;;;6.43;100.00;99290.69;5029849;28;20033;-71
2023/01/09 08:05:34;;;;;;;7.47;1.02;;;;;;;6.44;100.00;99302.00;5030410;28;20026;-70
2023/01/09 08:08:00;;;;;;;9.23;1.10;;;;;;;6.44;100.00;99294.16;5026892;28;20038;-69
2023/01/09 08:10:26;;;;;;;2.75;0.70;;;;;;;6.44;100.00;99302.00;5035299;28;20041;-71
2023/01/09 08:12:52;;;;;;;4.50;0.68;;;;;;;6.53;100.00;99313.41;5034865;28;20057;-70
2023/01/09 08:15:17;;;;;;;8.43;0.65;;;;;;;6.57;100.00;99324.75;5027983;28;20036;-70
2023/01/09 08:17:44;;;;;;;8.60;1.10;;;;;;;6.58;100.00;99321.28;5031680;28;20010;-70
2023/01/09 08:20:11;;;;;;;5.40;1.65;;;;;;;6.62;100.00;99330.91;5034886;28;20044;-71
2023/01/09 08:22:40;;;;;;;12.95;1.95;;;;;;;6.65;100.00;99341.38;5033752;28;20362;-70
2023/01/09 08:25:06;;;;;;;9.50;1.17;;;;;;;6.68;100.00;99337.91;5031573;28;20484;-70
2023/01/09 08:27:31;;;;;;;11.05;1.38;;;;;;;6.71;100.00;99354.47;5028015;28;20034;-71
2023/01/09 08:29:57;;;;;;;15.05;1.52;;;;;;;6.72;100.00;99343.16;5034016;28;20017;-71
2023/01/09 08:32:22;;;;;;;10.60;1.10;;;;;;;6.74;100.00;99359.75;5036701;28;20099;-70
2023/01/09 08:34:47;;;;;;;11.45;1.50;;;;;;;6.75;100.00;99358.00;5036109;28;20163;-71
2023/01/09 08:37:13;;;;;;;16.15;2.20;;;;;;;6.75;100.00;99363.25;5033651;28;20025;-70
2023/01/09 08:39:38;;;;;;;22.13;4.22;;;;;;;6.77;100.00;99374.59;5034070;28;20167;-71
2023/01/09 08:47:32;;;;;;;20.83;1.92;;;;;;;6.87;100.00;99399.06;5031776;28;20060;-72
2023/01/09 08:49:58;;;;;;;6.07;1.88;;;;;;;6.90;100.00;99402.59;5022473;28;20061;-70
2023/01/09 08:52:24;;;;;;;13.95;1.98;;;;;;;6.92;100.00;99407.84;5013962;28;20057;-71
2023/01/09 08:54:49;;;;;;;18.42;1.90;;;;;;;6.96;100.00;99407.00;5014043;28;20112;-71
2023/01/09 08:57:15;;;;;;;18.23;2.30;;;;;;;7.00;100.00;99418.34;5013870;28;20359;-71
2023/01/09 08:59:40;;;;;;;19.75;2.47;;;;;;;7.06;100.00;99426.25;5013806;28;20409;-71
2023/01/09 09:02:05;;;;;;;18.35;2.33;;;;;;;7.09;100.00;99432.38;5013901;28;20382;-71
2023/01/09 09:04:30;;;;;;;20.98;3.15;;;;;;;7.11;100.00;99436.72;5019361;28;20032;-70
2023/01/09 09:07:04;;;;;;;15.00;2.00;;;;;;;7.11;100.00;99447.19;5033633;28;20025;-71
2023/01/09 09:09:30;;;;;;;14.20;2.35;;;;;;;7.12;100.00;99444.59;5031054;28;20069;-70
2023/01/09 09:12:10;;;;;;;14.27;1.65;;;;;;;7.14;100.00;99453.34;5031524;28;20071;-70
2023/01/09 09:17:25;;;;;;;13.60;2.97;;;;;;;7.21;100.00;99464.72;5024084;28;20041;-71
2023/01/09 09:20:00;;;;;;;11.82;2.22;;;;;;;7.24;100.00;99468.25;5029426;28;20021;-70
2023/01/09 09:22:26;;;;;;;8.23;2.00;;;;;;;7.29;100.00;99478.75;5033385;28;20056;-71
2023/01/09 09:24:51;;;;;;;14.00;1.60;;;;;;;7.32;100.00;99477.88;5031963;28;20060;-72
2023/01/09 09:27:19;;;;;;;13.38;1.83;;;;;;;7.32;100.00;99484.00;5033035;28;20108;-70
2023/01/09 09:29:53;;;;;;;9.07;2.40;;;;;;;7.32;100.00;99488.34;5030782;28;20026;-71
2023/01/09 09:32:18;;;;;;;;;;;;;;;7.35;100.00;99510.22;5031419;28;20470;-71
2023/01/09 09:34:51;;;;;;;10.77;1.60;;;;;;;7.36;100.00;99493.63;5032445;28;19967;-71
2023/01/09 09:37:19;;;;;;;9.73;1.55;;;;;;;7.26;100.00;99504.88;5033193;28;20326;-72
2023/01/09 09:39:45;;;;;;;14.00;1.40;;;;;;;7.14;100.00;99508.28;5031679;28;20035;-71
2023/01/09 09:45:52;;;;;;;9.43;2.10;;;;;;;7.02;100.00;99522.09;5029621;28;20079;-70
2023/01/09 09:48:38;;;;;;;13.63;1.90;;;;;;;7.02;100.00;99519.50;5029446;28;20037;-71
2023/01/09 09:51:26;;;;;;;12.05;1.63;;;;;;;7.03;100.00;99531.72;5028192;28;20033;-72
2023/01/09 09:54:10;;;;;;;6.75;0.95;;;;;;;7.05;100.00;99532.63;5032124;28;20144;-71
2023/01/09 09:56:42;;;;;;;13.68;1.80;;;;;;;7.07;100.00;99535.25;5033992;28;20142;-72
2023/01/09 09:59:23;;;;;;;13.73;1.98;;;;;;;7.13;100.00;99542.28;5035956;28;20040;-70
2023/01/09 10:01:59;;;;;;;10.43;1.45;;;;;;;7.23;100.00;99549.31;5028533;28;20068;-72
2023/01/09 10:04:34;;;;;;;8.40;1.70;;;;;;;7.43;100.00;99554.72;5030296;28;20713;-72
2023/01/09 10:07:08;;;;;;;16.90;1.50;;;;;;;7.50;100.00;99569.66;5020408;28;20044;-69
2023/01/09 10:09:39;;;;;;;16.67;1.73;;;;;;;7.49;100.00;99569.59;5026502;28;20037;-71
2023/01/09 10:12:22;;;;;;;10.68;1.90;;;;;;;7.48;100.00;99584.44;5013619;28;20756;-74
2023/01/09 10:14:59;;;;;;;11.77;2.33;;;;;;;7.52;100.00;99594.06;5031293;28;20029;-73
2023/01/09 10:17:49;;;;;;;9.70;1.67;;;;;;;7.47;100.00;99594.91;5018711;28;20408;-71
2023/01/09 10:20:37;;;;;;;8.98;2.03;;;;;;;7.47;100.00;99595.78;5026622;28;20039;-70
2023/01/09 10:23:20;;;;;;;12.60;2.20;;;;;;;7.47;100.00;99603.63;5031277;28;20045;-71
2023/01/09 10:26:10;;;;;;;14.95;2.50;;;;;;;7.52;100.00;99603.69;5031871;28;20034;-72
2023/01/09 10:29:03;;;;;;;11.50;2.20;;;;;;;7.60;100.00;99604.63;5050481;28;20362;-70
2023/01/09 10:32:03;;;;;;;15.35;1.73;;;;;;;7.70;100.00;99627.38;5029551;28;20021;-72
2023/01/09 10:35:00;;;;;;;16.00;2.30;;;;;;;7.73;100.00;99637.91;5028486;28;20025;-71
2023/01/09 10:37:35;;;;;;;12.38;1.42;;;;;;;7.79;100.00;99636.22;5030805;28;20136;-70
2023/01/09 10:40:19;;;;;;;16.95;2.17;;;;;;;7.80;100.00;99638.84;5030485;28;20029;-71
2023/01/09 10:42:58;;;;;;;14.10;2.40;;;;;;;7.87;100.00;99637.16;5029417;28;20053;-71
2023/01/09 10:45:51;;;;;;;13.50;1.83;;;;;;;7.83;100.00;99638.84;5032106;28;20478;-71
2023/01/09 10:48:29;;;;;;;11.48;1.80;;;;;;;7.90;100.00;99647.63;5031867;28;20095;-72
2023/01/09 10:51:11;;;;;;;10.95;2.47;;;;;;;8.23;100.00;99646.13;5032127;28;20506;-72
2023/01/09 10:53:49;;;;;;;18.27;2.30;;;;;;;8.44;100.00;99654.13;5031049;28;20381;-70
2023/01/09 10:56:22;;;;;;;20.92;2.00;;;;;;;8.69;100.00;99648.19;5031804;28;20044;-70
2023/01/09 10:58:53;;;;;;;17.17;2.08;;;;;;;8.73;100.00;99656.06;5031610;28;20029;-71
2023/01/09 11:01:24;;;;;;;14.35;2.45;;;;;;;8.70;100.00;99666.53;5029670;28;20064;-70
2023/01/09 11:03:50;;;;;;;14.80;2.42;;;;;;;8.51;100.00;99664.69;5033908;28;20525;-70
2023/01/09 11:06:36;;;;;;;22.42;2.55;;;;;;;8.33;100.00;99673.25;5034971;28;20160;-70
2023/01/09 11:09:06;;;;;;;10.05;2.25;;;;;;;8.27;100.00;99681.97;5035827;28;20033;-70
2023/01/09 11:11:40;;;;;;;13.80;1.95;;;;;;;8.20;100.00;99685.41;5035768;28;20021;-69
2023/01/09 11:14:13;;;;;;;;;;;;;;;8.20;100.00;99690.66;5035123;28;20389;-70
2023/01/09 11:16:56;;;;;;;17.52;2.78;;;;;;;8.12;100.00;99682.72;5029100;28;20011;-70
2023/01/09 11:19:32;;;;;;;12.93;1.98;;;;;;;8.07;100.00;99679.19;5032619;28;20033;-69
2023/01/09 11:22:14;;;;;;;12.13;1.70;;;;;;;8.06;100.00;99680.94;5035013;28;20045;-69
2023/01/09 11:24:43;;;;;;;11.50;2.00;;;;;;;8.10;100.00;99685.34;5033852;28;20440;-71
2023/01/09 11:27:23;;;;;;;12.05;1.75;;;;;;;8.21;100.00;99687.19;5037651;28;20084;-70
2023/01/09 11:30:16;;;;;;;17.70;2.33;;;;;;;8.21;100.00;99695.91;5042234;28;20508;-72
2023/01/09 11:32:43;;;;;;;17.63;2.15;;;;;;;8.22;100.00;99694.16;5042109;28;20021;-70
2023/01/09 11:35:22;;;;;;;8.55;2.00;;;;;;;8.23;100.00;99701.16;5036778;28;20021;-69
2023/01/09 11:37:57;;;;;;;10.60;1.40;;;;;;;8.27;100.00;99703.84;5034363;28;20033;-71
2023/01/09 11:40:23;;;;;;;15.65;2.28;;;;;;;8.30;100.00;99707.31;5028649;28;20029;-69
2023/01/09 11:43:32;;;;;;;12.98;1.60;;;;;;;8.28;100.00;99710.81;5038143;28;20031;-69
2023/01/09 11:46:00;;;;;;;14.13;1.75;;;;;;;8.20;100.00;99717.72;5007880;28;20037;-70
2023/01/09 11:48:28;;;;;;;11.32;1.55;;;;;;;8.14;100.00;99720.31;5034125;28;20033;-70
2023/01/09 11:50:56;;;;;;;9.65;1.60;;;;;;;8.14;100.00;99716.81;5035133;28;20092;-70
2023/01/09 11:53:28;;;;;;;10.27;1.88;;;;;;;8.16;100.00;99730.81;5034952;28;20025;-68
2023/01/09 11:56:02;;;;;;;12.68;2.97;;;;;;;8.19;100.00;99733.44;5032387;28;20037;-68
2023/01/09 11:58:34;;;;;;;11.98;1.55;;;;;;;8.21;100.00;99739.59;5031539;28;20029;-70